Time;durP1;ratioP1;P1;durP2;ratioP2;P2;SDS_P1;SDS_P2;PMS_P1;PMS_P2;Temp;Humidity;BMP_temperature;BMP_pressure;BME280_temperature;BME280_humidity;BME280_pressure;Samples;Min_cycle;Max_cycle;Signal;HPM_P1;HPM_P2
2022/07/22 00:00:51;;;;;;;11.60;9.90;;;18.10;99.90;;;;;;4972514;28;20528;-73
2022/07/22 00:03:17;;;;;;;13.70;8.77;;;18.10;99.90;;;;;;4972464;28;20507;-74
2022/07/22 00:05:45;;;;;;;12.10;8.90;;;18.00;99.90;;;;;;4968349;28;20452;-74
2022/07/22 00:08:12;;;;;;;11.90;9.87;;;18.00;99.90;;;;;;4970417;28;20546;-74
2022/07/22 00:10:39;;;;;;;15.77;9.73;;;18.00;99.90;;;;;;4972259;28;20925;-74
2022/07/22 00:13:06;;;;;;;10.63;9.50;;;17.90;99.90;;;;;;4972024;28;20464;-74
2022/07/22 00:15:32;;;;;;;14.67;9.53;;;17.90;99.90;;;;;;4972287;28;20451;-74
2022/07/22 00:17:59;;;;;;;12.00;9.30;;;17.90;99.90;;;;;;4973121;28;20494;-74
2022/07/22 00:20:25;;;;;;;19.63;9.60;;;17.80;99.90;;;;;;4972744;28;20534;-74
2022/07/22 00:22:53;;;;;;;12.27;9.83;;;17.80;99.90;;;;;;4972073;28;21011;-74
2022/07/22 00:25:20;;;;;;;19.50;10.30;;;17.80;99.90;;;;;;4971731;28;20458;-74
2022/07/22 00:27:47;;;;;;;13.27;9.70;;;17.80;99.90;;;;;;4972043;28;20466;-74
2022/07/22 00:30:13;;;;;;;13.53;9.40;;;17.80;99.90;;;;;;4971513;28;20864;-74
2022/07/22 00:32:40;;;;;;;13.87;9.87;;;17.80;99.90;;;;;;4968533;28;20456;-74
2022/07/22 00:35:08;;;;;;;13.57;10.23;;;17.80;99.90;;;;;;4971453;28;21118;-73
2022/07/22 00:37:35;;;;;;;11.27;9.33;;;17.80;99.90;;;;;;4972039;28;20442;-74
2022/07/22 00:40:03;;;;;;;12.57;9.80;;;17.80;99.90;;;;;;4972283;28;20453;-74
2022/07/22 00:42:30;;;;;;;10.20;8.47;;;17.80;99.90;;;;;;4974822;28;20463;-74
2022/07/22 00:44:57;;;;;;;12.70;9.17;;;17.80;99.90;;;;;;4977702;28;20439;-73
2022/07/22 00:47:24;;;;;;;11.20;8.33;;;17.80;99.90;;;;;;4983195;28;20974;-73
2022/07/22 00:49:50;;;;;;;10.47;8.07;;;17.80;99.90;;;;;;4976071;28;20781;-73
2022/07/22 00:52:19;;;;;;;8.90;8.00;;;17.80;99.90;;;;;;4975601;28;20474;-73
2022/07/22 00:54:45;;;;;;;8.80;7.80;;;17.90;99.90;;;;;;4975840;28;20491;-73
2022/07/22 00:57:14;;;;;;;10.93;9.00;;;17.90;99.90;;;;;;4975138;28;20450;-74
2022/07/22 00:59:42;;;;;;;11.30;8.23;;;18.00;99.90;;;;;;4975706;28;20427;-73
2022/07/22 01:02:09;;;;;;;9.77;7.73;;;18.00;99.90;;;;;;4975395;28;20438;-73
2022/07/22 01:04:36;;;;;;;15.40;7.40;;;18.10;99.90;;;;;;4975801;28;20427;-73
2022/07/22 01:07:03;;;;;;;9.93;8.00;;;18.10;99.90;;;;;;4975141;28;20458;-73
2022/07/22 01:09:30;;;;;;;9.27;7.70;;;18.10;99.90;;;;;;4974269;28;20439;-74
2022/07/22 01:11:57;;;;;;;8.17;6.90;;;18.20;99.90;;;;;;4976301;28;20959;-73
2022/07/22 01:14:25;;;;;;;8.63;7.73;;;18.20;99.90;;;;;;4975729;28;20426;-74
2022/07/22 01:16:52;;;;;;;10.40;7.27;;;18.20;99.90;;;;;;4976260;28;20438;-74
2022/07/22 01:19:18;;;;;;;11.00;7.17;;;18.20;99.90;;;;;;4975067;28;20434;-73
2022/07/22 01:21:46;;;;;;;8.27;6.80;;;18.20;99.90;;;;;;4977509;28;20848;-74
2022/07/22 01:24:13;;;;;;;8.27;6.43;;;18.20;99.90;;;;;;4975120;28;20426;-73
2022/07/22 01:26:40;;;;;;;7.87;6.73;;;18.20;99.90;;;;;;4968843;28;20480;-73
2022/07/22 01:29:08;;;;;;;7.27;6.60;;;18.20;99.90;;;;;;4974948;28;20464;-74
2022/07/22 01:31:35;;;;;;;11.10;7.27;;;18.20;99.90;;;;;;4975181;28;20426;-74
2022/07/22 01:34:01;;;;;;;7.67;6.53;;;18.10;99.90;;;;;;4975219;28;20427;-73
2022/07/22 01:36:29;;;;;;;9.93;6.97;;;18.10;99.90;;;;;;4975193;28;20864;-73
2022/07/22 01:38:57;;;;;;;8.57;7.67;;;18.10;99.90;;;;;;4975813;28;20546;-73
2022/07/22 01:41:24;;;;;;;8.30;7.00;;;18.10;99.90;;;;;;4974768;28;20507;-73
2022/07/22 01:43:50;;;;;;;9.67;7.40;;;18.00;99.90;;;;;;4975061;28;20849;-73
2022/07/22 01:46:18;;;;;;;8.10;7.30;;;18.00;99.90;;;;;;4965221;28;20451;-73
2022/07/22 01:48:45;;;;;;;7.80;7.00;;;18.00;99.90;;;;;;4972264;28;20508;-73
2022/07/22 01:51:12;;;;;;;8.70;7.80;;;18.00;99.90;;;;;;4965118;28;20460;-73
2022/07/22 01:53:39;;;;;;;9.30;7.87;;;18.00;99.90;;;;;;4966284;28;20456;-73
2022/07/22 01:56:08;;;;;;;8.70;7.87;;;17.90;99.90;;;;;;4974142;28;20470;-73
2022/07/22 01:58:35;;;;;;;10.50;8.50;;;17.90;99.90;;;;;;4974710;28;20435;-73
2022/07/22 02:01:01;;;;;;;13.77;9.07;;;17.90;99.90;;;;;;4974483;28;20442;-74
2022/07/22 02:03:28;;;;;;;10.73;8.07;;;17.80;99.90;;;;;;4967807;28;20426;-73
2022/07/22 02:05:55;;;;;;;11.93;8.93;;;17.80;99.90;;;;;;4970296;28;20849;-73
2022/07/22 02:08:22;;;;;;;9.77;8.77;;;17.80;99.90;;;;;;4961704;28;20503;-73
2022/07/22 02:10:49;;;;;;;9.33;8.43;;;17.70;99.90;;;;;;4963401;28;20956;-73
2022/07/22 02:13:17;;;;;;;15.13;9.90;;;17.70;99.90;;;;;;4971884;28;20431;-73
2022/07/22 02:15:43;;;;;;;12.30;10.33;;;17.70;99.90;;;;;;4965818;28;20477;-73
2022/07/22 02:18:11;;;;;;;10.20;9.10;;;17.70;99.90;;;;;;4980809;28;20426;-73
2022/07/22 02:20:38;;;;;;;10.37;9.37;;;17.60;99.90;;;;;;4974363;28;20459;-74
2022/07/22 02:23:06;;;;;;;10.70;9.63;;;17.60;99.90;;;;;;4973984;28;20441;-73
2022/07/22 02:25:32;;;;;;;12.60;9.30;;;17.60;99.90;;;;;;4972783;28;20427;-73
2022/07/22 02:27:59;;;;;;;12.20;10.10;;;17.60;99.90;;;;;;4972586;28;20462;-73
2022/07/22 02:30:27;;;;;;;10.37;9.03;;;17.60;99.90;;;;;;4984381;28;20459;-73
2022/07/22 02:32:54;;;;;;;11.80;10.13;;;17.60;99.90;;;;;;4974179;28;20514;-73
2022/07/22 02:35:20;;;;;;;11.40;9.77;;;17.60;99.90;;;;;;4973612;28;20497;-73
2022/07/22 02:37:47;;;;;;;13.50;9.90;;;17.60;99.90;;;;;;4973901;28;20497;-73
2022/07/22 02:40:14;;;;;;;13.90;10.27;;;17.60;99.90;;;;;;4973674;28;20514;-73
2022/07/22 02:42:40;;;;;;;10.87;9.67;;;17.50;99.90;;;;;;4973261;28;20430;-73
2022/07/22 02:45:08;;;;;;;12.67;9.60;;;17.60;99.90;;;;;;4977105;28;20514;-73
2022/07/22 02:47:44;;;;;;;12.13;10.30;;;17.60;99.90;;;;;;4976336;28;20467;-73
2022/07/22 02:50:11;;;;;;;10.37;9.30;;;17.60;99.90;;;;;;4975620;28;20934;-73
2022/07/22 02:52:38;;;;;;;12.33;10.20;;;17.60;99.90;;;;;;4973514;28;20854;-73
2022/07/22 02:55:06;;;;;;;12.67;10.27;;;17.50;99.90;;;;;;4973249;28;20482;-73
2022/07/22 02:57:32;;;;;;;11.37;9.73;;;17.50;99.90;;;;;;4974193;28;20439;-73
2022/07/22 02:59:59;;;;;;;13.47;10.53;;;17.50;99.90;;;;;;4982061;28;20456;-73
2022/07/22 03:02:26;;;;;;;13.90;9.97;;;17.50;99.90;;;;;;4973031;28;20435;-73
2022/07/22 03:04:54;;;;;;;10.67;9.57;;;17.50;99.90;;;;;;4968618;28;20423;-73
2022/07/22 03:07:20;;;;;;;15.20;11.10;;;17.40;99.90;;;;;;4973849;28;20461;-72
2022/07/22 03:09:47;;;;;;;15.30;10.37;;;17.40;99.90;;;;;;4973104;28;20434;-73
2022/07/22 03:12:14;;;;;;;13.77;10.20;;;17.40;99.90;;;;;;4977553;28;20434;-73
2022/07/22 03:14:41;;;;;;;13.73;10.50;;;17.30;99.90;;;;;;4972148;28;20426;-72
2022/07/22 03:17:07;;;;;;;16.53;11.33;;;17.30;99.90;;;;;;4973712;28;20502;-73
2022/07/22 03:19:34;;;;;;;20.07;11.30;;;17.30;99.90;;;;;;4973202;28;20442;-73
2022/07/22 03:22:02;;;;;;;13.33;11.10;;;17.20;99.90;;;;;;4977220;28;20480;-73
2022/07/22 03:24:28;;;;;;;15.80;11.67;;;17.20;99.90;;;;;;4972513;28;20427;-73
2022/07/22 03:26:55;;;;;;;12.83;11.43;;;17.10;99.90;;;;;;4976995;28;20505;-73
2022/07/22 03:29:22;;;;;;;14.27;11.00;;;17.10;99.90;;;;;;4972457;28;20539;-73
2022/07/22 03:31:48;;;;;;;16.67;11.57;;;17.10;99.90;;;;;;4977633;28;20427;-74
2022/07/22 03:34:15;;;;;;;14.50;11.30;;;17.10;99.90;;;;;;4974112;28;20515;-73
2022/07/22 03:36:42;;;;;;;12.40;10.67;;;17.10;99.90;;;;;;4973613;28;21115;-73
2022/07/22 03:39:10;;;;;;;12.37;10.70;;;17.10;99.90;;;;;;4972797;28;20839;-73
2022/07/22 03:41:36;;;;;;;15.73;11.93;;;17.10;99.90;;;;;;4971406;28;20942;-73
2022/07/22 03:44:03;;;;;;;15.43;12.10;;;17.00;99.90;;;;;;4972774;28;20485;-73
2022/07/22 03:46:30;;;;;;;17.87;12.90;;;17.00;99.90;;;;;;4972206;28;20862;-73
2022/07/22 03:48:56;;;;;;;16.60;13.03;;;16.90;99.90;;;;;;4972010;28;20446;-73
2022/07/22 03:51:23;;;;;;;18.00;14.23;;;16.80;99.90;;;;;;4976060;28;20438;-73
2022/07/22 03:53:50;;;;;;;20.07;13.60;;;16.70;99.90;;;;;;4972664;28;20434;-73
2022/07/22 03:56:18;;;;;;;13.37;11.90;;;16.70;99.90;;;;;;4972091;28;20501;-73
2022/07/22 03:58:44;;;;;;;20.07;14.40;;;16.60;99.90;;;;;;4972522;28;20456;-73
2022/07/22 04:01:11;;;;;;;18.87;14.93;;;16.60;99.90;;;;;;4973705;28;20503;-73
2022/07/22 04:03:38;;;;;;;22.00;13.77;;;16.60;99.90;;;;;;4972543;28;20515;-73
2022/07/22 04:06:06;;;;;;;20.70;14.33;;;16.50;99.90;;;;;;4972118;28;20534;-73
2022/07/22 04:08:33;;;;;;;19.13;15.20;;;16.50;99.90;;;;;;4971036;28;21003;-74
2022/07/22 04:10:59;;;;;;;18.67;13.60;;;16.50;99.90;;;;;;4972419;28;20452;-73
2022/07/22 04:13:27;;;;;;;18.70;13.90;;;16.40;99.90;;;;;;4972101;28;20487;-73
2022/07/22 04:15:54;;;;;;;17.57;13.30;;;16.30;99.90;;;;;;4971033;28;20463;-73
2022/07/22 04:18:21;;;;;;;19.50;12.77;;;16.30;99.90;;;;;;4974761;28;20799;-73
2022/07/22 04:20:47;;;;;;;19.03;13.20;;;16.30;99.90;;;;;;4972476;28;20477;-74
2022/07/22 04:23:14;;;;;;;15.60;13.47;;;16.30;99.90;;;;;;4972019;28;20451;-73
2022/07/22 04:25:41;;;;;;;18.27;12.57;;;16.30;99.90;;;;;;4969412;28;20506;-74
2022/07/22 04:28:08;;;;;;;19.27;12.13;;;16.30;99.90;;;;;;4968820;28;20579;-74
2022/07/22 04:30:36;;;;;;;13.97;11.70;;;16.30;99.90;;;;;;4972321;28;22250;-75
2022/07/22 04:33:03;;;;;;;15.70;12.07;;;16.40;99.90;;;;;;4972379;28;20459;-74
2022/07/22 04:35:30;;;;;;;12.77;11.00;;;16.50;99.90;;;;;;4971685;28;20483;-74
2022/07/22 04:37:56;;;;;;;15.40;11.40;;;16.60;99.90;;;;;;4971828;28;20483;-75
2022/07/22 04:40:23;;;;;;;11.80;10.43;;;16.70;99.90;;;;;;4974256;28;20435;-75
2022/07/22 04:42:50;;;;;;;11.97;10.00;;;16.80;99.90;;;;;;4969833;28;20867;-75
2022/07/22 04:45:17;;;;;;;15.30;11.90;;;16.80;99.90;;;;;;4971930;28;20893;-75
2022/07/22 04:47:45;;;;;;;15.40;12.20;;;16.90;99.90;;;;;;4971838;28;20988;-74
2022/07/22 04:50:11;;;;;;;16.40;11.70;;;17.00;99.90;;;;;;4968549;28;20488;-75
2022/07/22 04:52:38;;;;;;;18.80;13.23;;;17.10;99.90;;;;;;4971864;28;20452;-74
2022/07/22 04:55:06;;;;;;;11.20;9.00;;;17.20;99.90;;;;;;4971550;28;20477;-75
2022/07/22 04:57:32;;;;;;;9.83;8.17;;;17.30;99.90;;;;;;4971773;28;20468;-73
2022/07/22 04:59:59;;;;;;;15.70;7.83;;;17.40;99.90;;;;;;4973638;28;20426;-74
2022/07/22 05:02:26;;;;;;;8.37;7.00;;;17.70;99.90;;;;;;4971857;28;20478;-73
2022/07/22 05:04:54;;;;;;;7.90;7.20;;;18.00;99.90;;;;;;4975008;28;20448;-74
2022/07/22 05:07:20;;;;;;;8.63;6.90;;;18.20;99.90;;;;;;4973084;28;20472;-75
2022/07/22 05:09:47;;;;;;;7.53;6.57;;;18.40;99.90;;;;;;4970947;28;20462;-75
2022/07/22 05:12:14;;;;;;;10.30;6.37;;;18.70;99.90;;;;;;4971639;28;20493;-73
2022/07/22 05:14:40;;;;;;;8.67;6.27;;;18.90;99.90;;;;;;4971972;28;20448;-74
2022/07/22 05:17:10;;;;;;;7.03;6.33;;;19.10;99.90;;;;;;4970975;28;20458;-72
2022/07/22 05:19:39;;;;;;;6.50;5.20;;;19.30;99.90;;;;;;4971423;28;20435;-74
2022/07/22 05:22:07;;;;;;;5.93;5.17;;;19.50;99.90;;;;;;4973088;28;20448;-74
2022/07/22 05:24:33;;;;;;;6.13;5.50;;;19.60;99.90;;;;;;4971657;28;21183;-74
2022/07/22 05:27:00;;;;;;;6.67;5.83;;;19.80;99.90;;;;;;4975194;28;20519;-74
2022/07/22 05:29:27;;;;;;;9.63;5.70;;;20.00;99.90;;;;;;4974970;28;20530;-74
2022/07/22 05:31:53;;;;;;;6.80;5.93;;;20.30;99.90;;;;;;4973488;28;20452;-74
2022/07/22 05:34:20;;;;;;;14.23;5.47;;;20.50;99.90;;;;;;4976509;28;20459;-75
2022/07/22 05:36:47;;;;;;;7.43;4.93;;;20.60;99.90;;;;;;4975961;28;20467;-75
2022/07/22 05:39:15;;;;;;;6.90;5.33;;;20.70;99.90;;;;;;4973676;28;20503;-75
2022/07/22 05:41:42;;;;;;;5.93;4.23;;;20.70;99.90;;;;;;4975747;28;20510;-74
2022/07/22 05:44:08;;;;;;;5.13;4.70;;;20.70;99.90;;;;;;4977468;28;20455;-75
2022/07/22 05:46:35;;;;;;;6.03;5.30;;;20.70;99.90;;;;;;4981289;28;20502;-74
2022/07/22 05:49:02;;;;;;;5.80;5.27;;;20.80;99.90;;;;;;4980348;28;20536;-74
2022/07/22 05:51:29;;;;;;;4.93;4.53;;;20.70;99.90;;;;;;4980385;28;20460;-75
2022/07/22 05:53:55;;;;;;;5.53;4.83;;;20.70;99.90;;;;;;4978800;28;20451;-75
2022/07/22 05:56:23;;;;;;;5.63;5.13;;;20.80;99.90;;;;;;4980553;28;20471;-74
2022/07/22 05:58:50;;;;;;;7.10;4.70;;;20.80;99.90;;;;;;4980169;28;20448;-74
2022/07/22 06:01:17;;;;;;;6.40;5.10;;;20.90;99.90;;;;;;4979292;28;20456;-72
2022/07/22 06:03:43;;;;;;;5.30;4.27;;;21.00;99.90;;;;;;4980702;28;20514;-74
2022/07/22 06:06:10;;;;;;;7.93;4.70;;;21.10;99.90;;;;;;4979760;28;20565;-73
2022/07/22 06:08:37;;;;;;;7.33;4.60;;;21.10;99.90;;;;;;4979869;28;20475;-75
2022/07/22 06:11:04;;;;;;;6.87;4.93;;;21.30;99.90;;;;;;4980265;28;20451;-75
2022/07/22 06:13:32;;;;;;;5.40;4.30;;;21.40;99.90;;;;;;4977751;28;20463;-74
2022/07/22 06:15:58;;;;;;;5.20;4.80;;;21.30;99.90;;;;;;4979562;28;20479;-74
2022/07/22 06:18:25;;;;;;;4.97;4.57;;;21.30;99.90;;;;;;4979111;28;20453;-74
2022/07/22 06:20:52;;;;;;;4.63;4.27;;;21.20;99.90;;;;;;4980153;28;20510;-74
2022/07/22 06:23:19;;;;;;;4.60;4.20;;;21.40;99.90;;;;;;4979594;28;21119;-74
2022/07/22 06:25:46;;;;;;;8.10;4.90;;;21.60;99.90;;;;;;4978868;28;20459;-73
2022/07/22 06:28:13;;;;;;;8.37;5.30;;;21.80;99.90;;;;;;4979682;28;20456;-74
2022/07/22 06:30:41;;;;;;;5.03;4.50;;;21.60;99.90;;;;;;4979230;28;20460;-74
2022/07/22 06:33:08;;;;;;;5.80;4.57;;;21.60;99.90;;;;;;4978716;28;20460;-73
2022/07/22 06:35:35;;;;;;;9.30;4.70;;;21.60;99.90;;;;;;4979205;28;20503;-74
2022/07/22 06:38:02;;;;;;;5.17;4.53;;;21.70;99.90;;;;;;4978328;28;20538;-74
2022/07/22 06:40:28;;;;;;;5.70;5.20;;;21.70;99.90;;;;;;4979251;28;20443;-74
2022/07/22 06:42:56;;;;;;;4.87;4.50;;;21.60;99.90;;;;;;4980364;28;20497;-74
2022/07/22 06:45:23;;;;;;;4.73;4.33;;;21.50;99.90;;;;;;4978380;28;20513;-73
2022/07/22 06:47:51;;;;;;;10.63;4.43;;;21.50;99.90;;;;;;4979824;28;20472;-73
2022/07/22 06:50:18;;;;;;;4.83;4.40;;;21.70;99.90;;;;;;4977972;28;20524;-74
2022/07/22 06:52:45;;;;;;;4.57;4.27;;;21.90;99.90;;;;;;4979137;28;20460;-75
2022/07/22 06:55:12;;;;;;;4.77;4.20;;;21.90;99.90;;;;;;4979407;28;20456;-75
2022/07/22 06:57:39;;;;;;;5.87;3.63;;;22.00;99.90;;;;;;4978518;28;20498;-74
2022/07/22 07:00:08;;;;;;;6.17;3.90;;;21.70;99.90;;;;;;4979889;28;20456;-75
2022/07/22 07:02:35;;;;;;;4.27;3.97;;;21.80;99.90;;;;;;4977925;28;20458;-74
2022/07/22 07:05:03;;;;;;;4.30;3.90;;;22.00;99.90;;;;;;4978888;28;20519;-74
2022/07/22 07:07:30;;;;;;;4.00;3.70;;;22.00;99.90;;;;;;4978581;28;20531;-74
2022/07/22 07:09:57;;;;;;;5.20;3.83;;;22.00;99.90;;;;;;4977969;28;20482;-75
2022/07/22 07:12:23;;;;;;;4.47;4.07;;;21.90;99.90;;;;;;4978701;28;20507;-73
2022/07/22 07:14:50;;;;;;;4.20;3.70;;;21.90;99.90;;;;;;4978791;28;20963;-75
2022/07/22 07:17:17;;;;;;;4.40;4.00;;;21.90;99.90;;;;;;4977128;28;20502;-73
2022/07/22 07:19:43;;;;;;;5.97;4.30;;;22.10;99.90;;;;;;4978712;28;20506;-74
2022/07/22 07:22:11;;;;;;;4.00;3.60;;;22.20;99.90;;;;;;4979012;28;20464;-74
2022/07/22 07:24:38;;;;;;;3.70;3.40;;;22.50;99.90;;;;;;4979409;28;20456;-73
2022/07/22 07:27:05;;;;;;;4.17;3.40;;;22.60;99.90;;;;;;4979784;28;20471;-75
2022/07/22 07:29:31;;;;;;;3.47;2.97;;;22.50;99.90;;;;;;4978949;28;20979;-73
2022/07/22 07:31:58;;;;;;;4.53;3.63;;;22.60;99.90;;;;;;4979373;28;20456;-73
2022/07/22 07:34:25;;;;;;;3.40;3.10;;;22.70;99.90;;;;;;4978550;28;20873;-73
2022/07/22 07:36:51;;;;;;;4.27;3.63;;;22.70;99.90;;;;;;4978625;28;20542;-73
2022/07/22 07:39:19;;;;;;;4.60;3.33;;;23.10;99.90;;;;;;4979281;28;20454;-72
2022/07/22 07:41:46;;;;;;;3.53;3.23;;;23.30;99.90;;;;;;4978074;28;20518;-74
2022/07/22 07:44:13;;;;;;;6.63;3.63;;;23.30;99.90;;;;;;4978561;28;20511;-74
2022/07/22 07:46:39;;;;;;;3.40;3.10;;;23.30;99.90;;;;;;4978144;28;20527;-75
2022/07/22 07:49:06;;;;;;;3.30;3.10;;;23.50;99.90;;;;;;4978193;28;20488;-74
2022/07/22 07:51:33;;;;;;;4.03;3.60;;;24.00;99.90;;;;;;4977839;28;20510;-74
2022/07/22 07:53:59;;;;;;;3.10;2.90;;;24.30;99.90;;;;;;4978118;28;21026;-75
2022/07/22 07:56:27;;;;;;;2.53;2.43;;;24.60;99.90;;;;;;4978088;28;20479;-73
2022/07/22 07:58:54;;;;;;;5.00;3.20;;;24.80;99.90;;;;;;4978236;28;20447;-74
2022/07/22 08:01:21;;;;;;;3.30;3.00;;;25.00;99.90;;;;;;4977274;28;20534;-72
2022/07/22 08:03:47;;;;;;;5.97;2.67;;;24.90;99.90;;;;;;4978775;28;20456;-73
2022/07/22 08:06:14;;;;;;;3.27;3.00;;;25.00;99.90;;;;;;4978326;28;20479;-71
2022/07/22 08:08:41;;;;;;;2.73;2.53;;;24.80;99.90;;;;;;4977967;28;20483;-75
2022/07/22 08:11:07;;;;;;;3.00;2.80;;;24.80;99.90;;;;;;4978628;28;20459;-74
2022/07/22 08:13:35;;;;;;;5.30;3.40;;;25.10;99.90;;;;;;4978186;28;21041;-76
2022/07/22 08:16:02;;;;;;;3.20;3.00;;;25.30;99.90;;;;;;4977920;28;20550;-75
2022/07/22 08:18:29;;;;;;;3.00;2.70;;;25.30;99.90;;;;;;4979121;28;20513;-75
2022/07/22 08:20:56;;;;;;;3.53;3.23;;;25.10;99.90;;;;;;4978189;28;20448;-75
2022/07/22 08:23:23;;;;;;;4.03;3.10;;;25.10;99.90;;;;;;4979224;28;20454;-75
2022/07/22 08:25:50;;;;;;;6.60;3.20;;;25.30;99.90;;;;;;4977973;28;20447;-75
2022/07/22 08:28:16;;;;;;;3.93;3.50;;;25.50;99.90;;;;;;4978499;28;20455;-76
2022/07/22 08:30:44;;;;;;;4.00;3.20;;;25.60;99.90;;;;;;4978631;28;20480;-75
2022/07/22 08:33:11;;;;;;;4.23;3.40;;;25.80;99.90;;;;;;4977983;28;20533;-75
2022/07/22 08:35:38;;;;;;;3.10;2.90;;;26.20;99.90;;;;;;4978254;28;21067;-75
2022/07/22 08:38:05;;;;;;;3.27;3.07;;;26.30;99.90;;;;;;4978004;28;20478;-75
2022/07/22 08:40:31;;;;;;;3.83;3.53;;;26.50;99.90;;;;;;4978289;28;20506;-75
2022/07/22 08:43:00;;;;;;;2.80;2.60;;;26.60;99.90;;;;;;4978511;28;21181;-75
2022/07/22 08:45:29;;;;;;;3.57;3.27;;;26.40;99.90;;;;;;4976747;28;20463;-75
2022/07/22 08:48:02;;;;;;;4.93;3.20;;;26.30;99.90;;;;;;4978592;28;20517;-75
2022/07/22 08:50:29;;;;;;;3.10;2.90;;;26.20;99.90;;;;;;4977794;28;21022;-75
2022/07/22 08:52:56;;;;;;;3.60;3.10;;;26.20;99.90;;;;;;4977077;28;20511;-75
2022/07/22 08:55:23;;;;;;;3.40;3.13;;;26.40;99.90;;;;;;4978477;28;20506;-75
2022/07/22 08:57:50;;;;;;;3.43;3.13;;;26.60;99.90;;;;;;4978115;28;20467;-75
2022/07/22 09:00:20;;;;;;;3.73;3.43;;;26.60;99.90;;;;;;4977855;28;20456;-76
2022/07/22 09:02:46;;;;;;;5.20;3.63;;;26.60;99.90;;;;;;4981647;28;20936;-75
2022/07/22 09:05:16;;;;;;;3.13;2.93;;;26.70;99.90;;;;;;4980747;28;20447;-74
2022/07/22 09:07:46;;;;;;;2.83;2.63;;;26.90;99.90;;;;;;4981839;28;20498;-74
2022/07/22 09:10:14;;;;;;;3.37;3.07;;;27.10;99.90;;;;;;4982289;28;20492;-74
2022/07/22 09:12:57;;;;;;;3.27;3.07;;;27.20;99.90;;;;;;4981047;28;20549;-74
2022/07/22 09:15:30;;;;;;;3.00;2.80;;;27.00;99.90;;;;;;4981157;28;20487;-75
2022/07/22 09:17:58;;;;;;;4.13;3.80;;;26.70;99.90;;;;;;4980705;28;20566;-76
2022/07/22 09:20:27;;;;;;;3.63;3.33;;;26.40;99.90;;;;;;4982135;28;20449;-75
2022/07/22 09:22:55;;;;;;;7.70;3.50;;;26.00;99.90;;;;;;4981132;28;20462;-75
2022/07/22 09:25:25;;;;;;;3.50;3.27;;;25.90;99.90;;;;;;4981506;28;20451;-75
2022/07/22 09:27:53;;;;;;;4.83;3.33;;;26.00;99.90;;;;;;4981250;28;20483;-75
2022/07/22 09:30:23;;;;;;;6.00;3.70;;;26.00;99.90;;;;;;4980754;28;20980;-75
2022/07/22 09:32:51;;;;;;;3.83;3.43;;;26.00;99.90;;;;;;4981330;28;20484;-74
2022/07/22 09:35:19;;;;;;;3.80;3.50;;;26.00;99.90;;;;;;4981706;28;20463;-74
2022/07/22 09:37:55;;;;;;;4.80;3.37;;;26.20;99.90;;;;;;4981317;28;20472;-75
2022/07/22 09:40:24;;;;;;;3.60;3.30;;;26.20;99.90;;;;;;4981611;28;20447;-76
2022/07/22 09:42:54;;;;;;;5.53;3.80;;;26.10;99.90;;;;;;4980468;28;20495;-77
2022/07/22 09:45:22;;;;;;;5.20;3.87;;;26.20;99.90;;;;;;4980280;28;20455;-75
2022/07/22 09:47:50;;;;;;;6.40;4.20;;;26.50;99.90;;;;;;4980922;28;20998;-75
2022/07/22 09:50:19;;;;;;;3.93;3.63;;;26.90;99.90;;;;;;4980140;28;20476;-75
2022/07/22 09:52:48;;;;;;;4.20;3.60;;;26.80;99.90;;;;;;4981509;28;20451;-75
2022/07/22 09:55:18;;;;;;;3.63;3.33;;;26.70;99.90;;;;;;4980054;28;20558;-75
2022/07/22 09:57:46;;;;;;;4.13;3.80;;;26.70;99.90;;;;;;4980582;28;20537;-74
2022/07/22 10:00:14;;;;;;;3.93;3.63;;;26.70;99.90;;;;;;4980726;28;20448;-74
2022/07/22 10:02:45;;;;;;;5.03;3.90;;;26.60;99.90;;;;;;4980436;28;20458;-74
2022/07/22 10:05:14;;;;;;;6.70;3.80;;;26.00;99.90;;;;;;4980705;28;20888;-74
2022/07/22 10:07:42;;;;;;;4.70;4.10;;;25.90;99.90;;;;;;4979661;28;20482;-75
2022/07/22 10:10:10;;;;;;;8.20;4.10;;;25.70;99.90;;;;;;4980411;28;20495;-75
2022/07/22 10:12:39;;;;;;;4.90;3.90;;;25.70;99.90;;;;;;4980820;28;20820;-75
2022/07/22 10:15:07;;;;;;;4.43;3.73;;;25.90;99.90;;;;;;4980400;28;20452;-75
2022/07/22 10:17:35;;;;;;;4.10;3.80;;;26.10;99.90;;;;;;4980947;28;20507;-74
2022/07/22 10:20:02;;;;;;;7.60;4.50;;;26.20;99.90;;;;;;4980383;28;20808;-74
2022/07/22 10:22:49;;;;;;;4.20;3.73;;;26.30;99.90;;;;;;4980529;28;20463;-74
2022/07/22 10:25:18;;;;;;;5.07;4.20;;;26.40;99.90;;;;;;4980911;28;20452;-75
2022/07/22 10:27:47;;;;;;;5.23;3.77;;;26.30;99.90;;;;;;4979359;28;20525;-74
2022/07/22 10:30:16;;;;;;;4.83;4.40;;;26.20;99.90;;;;;;4980677;28;20494;-75
2022/07/22 10:32:43;;;;;;;4.70;4.30;;;26.10;99.90;;;;;;4980745;28;20459;-76
2022/07/22 10:35:26;;;;;;;4.60;4.13;;;26.20;99.90;;;;;;4979700;28;20847;-77
2022/07/22 10:37:56;;;;;;;4.73;4.03;;;26.40;99.90;;;;;;4980218;28;20476;-75
2022/07/22 10:40:25;;;;;;;4.37;4.07;;;26.50;99.90;;;;;;4979830;28;20959;-75
2022/07/22 10:43:10;;;;;;;3.50;3.20;;;26.70;99.90;;;;;;4979826;28;20452;-75
2022/07/22 10:45:43;;;;;;;4.30;3.40;;;26.70;99.90;;;;;;4979464;28;20467;-75
2022/07/22 10:48:12;;;;;;;4.43;4.03;;;27.00;99.90;;;;;;4979108;28;20464;-75
2022/07/22 10:50:44;;;;;;;4.40;4.00;;;27.00;99.90;;;;;;4980330;28;20526;-76
2022/07/22 10:53:13;;;;;;;4.20;3.83;;;26.90;99.90;;;;;;4979539;28;20456;-76
2022/07/22 10:56:00;;;;;;;3.70;3.50;;;26.80;99.90;;;;;;4979605;28;20459;-76
2022/07/22 10:58:46;;;;;;;4.13;3.70;;;26.80;99.90;;;;;;4980044;28;20451;-76
2022/07/22 11:01:15;;;;;;;8.63;4.20;;;27.10;99.90;;;;;;4978961;28;20482;-76
2022/07/22 11:03:44;;;;;;;4.33;4.00;;;27.30;99.90;;;;;;4980180;28;20488;-76
2022/07/22 11:06:19;;;;;;;5.43;4.30;;;27.50;99.90;;;;;;4979180;28;21027;-77
2022/07/22 11:08:47;;;;;;;5.47;4.60;;;27.70;99.90;;;;;;4979349;28;20513;-76
2022/07/22 11:11:14;;;;;;;4.10;3.80;;;28.00;99.90;;;;;;4979507;28;21069;-77
2022/07/22 11:13:44;;;;;;;4.03;3.73;;;28.20;99.90;;;;;;4978907;28;20459;-76
2022/07/22 11:16:15;;;;;;;4.40;4.00;;;28.20;99.90;;;;;;4980181;28;20466;-76
2022/07/22 11:18:47;;;;;;;4.30;3.63;;;27.90;99.90;;;;;;4982812;28;20875;-76
2022/07/22 11:21:16;;;;;;;4.40;4.00;;;28.10;99.90;;;;;;4976428;28;20509;-76
2022/07/22 11:23:43;;;;;;;5.93;4.20;;;28.40;99.90;;;;;;4979123;28;20542;-76
2022/07/22 11:26:14;;;;;;;4.10;3.70;;;28.60;99.90;;;;;;4977957;28;20537;-76
2022/07/22 11:28:41;;;;;;;4.83;3.77;;;28.60;99.90;;;;;;4980079;28;20549;-76
2022/07/22 11:31:10;;;;;;;4.50;3.30;;;28.70;99.90;;;;;;4978278;28;21003;-75
2022/07/22 11:33:37;;;;;;;4.37;3.93;;;28.90;99.90;;;;;;4979857;28;20448;-75
2022/07/22 11:36:06;;;;;;;6.03;3.60;;;29.00;99.90;;;;;;4979047;28;21266;-76
2022/07/22 11:38:44;;;;;;;3.87;3.57;;;29.30;99.90;;;;;;4977777;28;20532;-76
2022/07/22 11:41:11;;;;;;;4.30;3.90;;;29.60;99.90;;;;;;4978732;28;20443;-75
2022/07/22 11:43:40;;;;;;;3.67;3.27;;;29.80;99.90;;;;;;4977710;28;20460;-74
2022/07/22 11:46:06;;;;;;;4.20;3.90;;;29.90;99.90;;;;;;4977984;28;20534;-74
2022/07/22 11:48:35;;;;;;;4.57;4.23;;;29.60;99.90;;;;;;4978462;28;20448;-74
2022/07/22 11:51:02;;;;;;;4.03;3.73;;;29.30;99.90;;;;;;4976725;28;20563;-75
2022/07/22 11:53:29;;;;;;;5.67;4.60;;;29.20;99.90;;;;;;4978637;28;20452;-73
2022/07/22 11:55:58;;;;;;;4.13;3.73;;;29.30;99.90;;;;;;4977964;28;21645;-76
2022/07/22 11:58:54;;;;;;;4.17;3.70;;;29.30;99.90;;;;;;4978822;28;21227;-81
2022/07/22 12:01:22;;;;;;;4.27;3.87;;;29.30;99.90;;;;;;4933764;28;20967;-72
2022/07/22 12:03:51;;;;;;;5.10;4.70;;;29.30;99.90;;;;;;4977739;28;20456;-75
2022/07/22 12:06:21;;;;;;;4.90;4.40;;;29.30;99.90;;;;;;4978989;28;20476;-75
2022/07/22 12:08:50;;;;;;;4.87;4.47;;;29.40;99.90;;;;;;4978588;28;20490;-74
2022/07/22 12:11:19;;;;;;;4.43;3.97;;;29.50;99.90;;;;;;4978158;28;20491;-73
2022/07/22 12:13:47;;;;;;;4.17;3.80;;;29.70;99.90;;;;;;4978118;28;20452;-72
2022/07/22 12:16:23;;;;;;;5.30;4.33;;;29.90;99.90;;;;;;4977742;28;20487;-72
2022/07/22 12:18:57;;;;;;;4.17;3.83;;;30.10;99.90;;;;;;4978559;28;20826;-74
2022/07/22 12:21:25;;;;;;;4.57;3.87;;;30.60;99.90;;;;;;4978153;28;20463;-74
2022/07/22 12:23:53;;;;;;;10.10;4.40;;;30.90;99.90;;;;;;4978171;28;20503;-73
2022/07/22 12:26:20;;;;;;;4.67;3.90;;;31.00;99.90;;;;;;4977512;28;20467;-79
2022/07/22 12:28:47;;;;;;;4.53;3.93;;;31.20;99.90;;;;;;4977863;28;20444;-77
2022/07/22 12:31:14;;;;;;;6.13;3.93;;;31.40;99.90;;;;;;4978371;28;20505;-77
2022/07/22 12:33:49;;;;;;;4.63;4.20;;;31.20;99.90;;;;;;4979101;28;20456;-77
2022/07/22 12:36:17;;;;;;;5.60;4.13;;;31.00;99.90;;;;;;4976181;28;20554;-77
2022/07/22 12:38:43;;;;;;;4.20;3.90;;;30.60;99.90;;;;;;4978128;28;20451;-77
2022/07/22 12:41:29;;;;;;;4.40;4.00;;;30.50;99.90;;;;;;4978361;28;20534;-78
2022/07/22 12:43:55;;;;;;;5.50;4.10;;;30.40;99.90;;;;;;4978584;28;20506;-78